Imbuia, Brazil
Current Conditions -  °F | °C
As of 2:00 PM on Monday 24 Nov 2014 (Local Time) from SBFL Reporting Station
Scattered Clouds Scattered Clouds  
Wind Chill: 82°   Ceiling: Unl
Heat Index: 84°   Visibility: 6mi
Dew Point: 64°   Wind: 16mph
Humidity: 54%   Direction: 360°N
Pressure: 29.97"   Gusts: NA
Location:  27.49°S, 49.42°W
Report Text: SBFL 241600Z 36014KT 9999 SCT025 28/18 Q1015
Loading
Personal Weather Stations






























Interactive Weather Map New forecast layout! Learn more

10-Day Weather Forecast

Advertisements
Track Severe Weather on mobile